createdAt,value
2018-04-17T00:01:38.010Z,101541.40
2018-04-17T00:04:05.539Z,101551.28
2018-04-17T00:06:33.093Z,101553.05
2018-04-17T00:09:00.877Z,101552.63
2018-04-17T00:11:28.423Z,101558.42
2018-04-17T00:13:55.988Z,101558.42
2018-04-17T00:16:23.544Z,101556.23
2018-04-17T00:18:51.136Z,101563.28
2018-04-17T00:21:18.698Z,101565.45
2018-04-17T00:23:46.552Z,101568.18
2018-04-17T00:26:14.056Z,101576.33
2018-04-17T00:28:41.615Z,101572.84
2018-04-17T00:31:09.130Z,101579.31
2018-04-17T00:33:36.626Z,101578.93
2018-04-17T00:36:04.168Z,101583.50
2018-04-17T00:38:31.716Z,101588.53
2018-04-17T00:40:59.580Z,101592.55
2018-04-17T00:43:27.175Z,101592.34
2018-04-17T00:48:28.591Z,101616.81
2018-04-17T00:50:56.106Z,101628.16
2018-04-17T00:53:35.498Z,101623.30
2018-04-17T00:56:03.031Z,101624.80
2018-04-17T00:58:30.567Z,101629.20
2018-04-17T01:00:58.105Z,101635.56
2018-04-17T01:03:25.626Z,101635.89
2018-04-17T01:05:53.144Z,101639.91
2018-04-17T01:08:20.705Z,101637.69
2018-04-17T01:10:48.235Z,101635.25
2018-04-17T01:13:15.750Z,101637.69
2018-04-17T01:15:43.384Z,101642.21
2018-04-17T01:18:10.905Z,101642.74
2018-04-17T01:20:38.440Z,101649.19
2018-04-17T01:23:05.968Z,101649.94
2018-04-17T01:25:33.513Z,101646.08
2018-04-17T01:28:01.043Z,101650.60
2018-04-17T01:30:28.587Z,101655.20
2018-04-17T01:32:56.477Z,101655.65
2018-04-17T01:35:23.993Z,101664.27
2018-04-17T01:37:51.541Z,101665.47
2018-04-17T01:40:19.654Z,101668.58
2018-04-17T01:42:47.202Z,101672.52
2018-04-17T01:45:15.594Z,101669.41
2018-04-17T01:47:43.118Z,101657.77
2018-04-17T01:50:10.646Z,101662.23
2018-04-17T01:52:38.248Z,101663.41
2018-04-17T01:55:06.076Z,101672.19
2018-04-17T01:57:33.613Z,101667.66
2018-04-17T02:00:01.182Z,101668.08
2018-04-17T02:02:28.955Z,101677.37
2018-04-17T02:04:56.486Z,101678.73
2018-04-17T02:07:24.390Z,101674.70
2018-04-17T02:09:51.915Z,101675.22
2018-04-17T02:12:19.707Z,101679.48
2018-04-17T02:14:47.266Z,101679.48
2018-04-17T02:17:14.844Z,101680.65
2018-04-17T02:19:43.064Z,101691.86
2018-04-17T02:22:10.846Z,101696.46
2018-04-17T02:24:38.387Z,101703.25
2018-04-17T02:27:05.902Z,101701.90
2018-04-17T02:29:33.480Z,101704.93
2018-04-17T02:32:01.010Z,101709.03
2018-04-17T02:34:28.593Z,101707.25
2018-04-17T02:36:56.437Z,101706.94
2018-04-17T02:39:23.955Z,101713.55
2018-04-17T02:41:51.512Z,101711.53
2018-04-17T02:44:19.052Z,101718.98
2018-04-17T02:46:46.606Z,101713.78
2018-04-17T02:49:14.130Z,101717.05
2018-04-17T02:51:41.722Z,101715.06
2018-04-17T02:54:09.353Z,101714.80
2018-04-17T02:56:36.860Z,101720.81
2018-04-17T02:59:04.402Z,101718.30
2018-04-17T03:01:31.956Z,101718.55
2018-04-17T03:03:59.497Z,101719.41
2018-04-17T03:06:27.384Z,101723.82
2018-04-17T03:08:54.922Z,101725.16
2018-04-17T03:11:22.482Z,101729.19
2018-04-17T03:13:50.043Z,101727.09
2018-04-17T03:16:17.552Z,101730.75
2018-04-17T03:18:45.348Z,101738.13
2018-04-17T03:21:13.267Z,101737.55
2018-04-17T03:23:40.786Z,101739.70
2018-04-17T03:26:08.584Z,101744.14
2018-04-17T03:28:36.138Z,101748.66
2018-04-17T03:31:03.712Z,101754.44
2018-04-17T03:33:31.398Z,101752.91
2018-04-17T03:35:59.245Z,101752.23
2018-04-17T03:38:26.814Z,101763.36
2018-04-17T03:40:54.346Z,101765.45
2018-04-17T03:43:21.909Z,101764.95
2018-04-17T03:45:50.115Z,101756.93
2018-04-17T03:48:17.669Z,101758.42
2018-04-17T03:50:45.248Z,101759.77
2018-04-17T03:53:12.787Z,101768.22
2018-04-17T03:55:40.639Z,101775.67
2018-04-17T03:58:08.241Z,101773.38
2018-04-17T04:00:36.114Z,101770.03
2018-04-17T04:03:03.671Z,101773.20
2018-04-17T04:05:31.205Z,101778.55
2018-04-17T04:07:58.759Z,101776.03
2018-04-17T04:10:26.610Z,101778.52
2018-04-17T04:12:54.275Z,101780.70
2018-04-17T04:15:21.777Z,101785.06
2018-04-17T04:18:01.403Z,101788.88
2018-04-17T04:20:41.022Z,101796.07
2018-04-17T04:23:20.444Z,101801.84
2018-04-17T04:25:59.674Z,101811.78
2018-04-17T04:28:27.670Z,101801.16
2018-04-17T04:30:55.205Z,101802.57
2018-04-17T04:33:23.097Z,101808.19
2018-04-17T04:35:50.671Z,101817.97
2018-04-17T04:38:18.213Z,101820.06
2018-04-17T04:40:45.752Z,101827.17
2018-04-17T04:43:13.826Z,101831.42
2018-04-17T04:45:41.333Z,101832.45
2018-04-17T04:48:08.950Z,101836.62
2018-04-17T04:50:36.506Z,101837.49
2018-04-17T04:53:04.020Z,101839.33
2018-04-17T04:55:31.559Z,101847.59
2018-04-17T04:57:59.138Z,101854.05
2018-04-17T05:00:26.664Z,101852.70
2018-04-17T05:02:54.169Z,101861.16
2018-04-17T05:05:21.759Z,101869.53
2018-04-17T05:07:49.296Z,101872.05
2018-04-17T05:10:16.888Z,101874.57
2018-04-17T05:12:44.444Z,101879.69
2018-04-17T05:15:11.953Z,101883.70
2018-04-17T05:17:39.558Z,101891.73
2018-04-17T05:20:07.077Z,101896.44
2018-04-17T05:22:34.710Z,101902.97
2018-04-17T05:25:02.270Z,101908.48
2018-04-17T05:27:29.803Z,101916.62
2018-04-17T05:29:57.329Z,101917.92
2018-04-17T05:32:24.921Z,101923.66
2018-04-17T05:34:52.453Z,101929.78
2018-04-17T05:37:19.983Z,101936.16
2018-04-17T05:39:47.750Z,101936.16
2018-04-17T05:42:15.388Z,101940.86
2018-04-17T05:44:42.899Z,101949.84
2018-04-17T05:47:10.484Z,101956.47
2018-04-17T05:49:38.864Z,101963.08
2018-04-17T05:52:06.393Z,101963.19
2018-04-17T05:54:33.942Z,101968.05
2018-04-17T05:57:01.483Z,101969.83
2018-04-17T05:59:29.020Z,101971.94
2018-04-17T06:01:56.561Z,101969.23
2018-04-17T06:04:24.146Z,101968.61
2018-04-17T06:06:52.450Z,101970.70
2018-04-17T06:09:19.960Z,101991.00
2018-04-17T06:11:47.514Z,101989.68
2018-04-17T06:14:15.045Z,101992.76
2018-04-17T06:16:42.979Z,101989.05
2018-04-17T06:19:10.556Z,101990.02
2018-04-17T06:21:38.847Z,101998.96
2018-04-17T06:24:06.373Z,102000.56
2018-04-17T06:26:33.898Z,102000.58
2018-04-17T06:29:01.390Z,102008.72
2018-04-17T06:31:28.989Z,102014.91
2018-04-17T06:33:56.505Z,102020.94
2018-04-17T06:36:24.060Z,102024.27
2018-04-17T06:38:51.599Z,102030.68
2018-04-17T06:41:19.128Z,102033.49
2018-04-17T06:43:46.683Z,102039.75
2018-04-17T06:46:14.203Z,102046.56
2018-04-17T06:48:42.162Z,102055.77
2018-04-17T06:51:09.650Z,102055.41
2018-04-17T06:53:37.447Z,102052.55
2018-04-17T06:56:04.986Z,102062.67
2018-04-17T06:58:32.772Z,102055.31
2018-04-17T07:01:00.318Z,102062.88
2018-04-17T07:03:27.877Z,102061.89
2018-04-17T07:05:55.408Z,102066.34
2018-04-17T07:08:23.000Z,102071.00
2018-04-17T07:10:50.546Z,102072.55
2018-04-17T07:13:18.096Z,102069.75
2018-04-17T07:15:46.019Z,102079.41
2018-04-17T07:18:13.559Z,102082.45
2018-04-17T07:20:41.112Z,102079.07
2018-04-17T07:23:08.672Z,102091.50
2018-04-17T07:25:36.341Z,102092.70
2018-04-17T07:28:03.846Z,102100.58
2018-04-17T07:30:31.349Z,102098.59
2018-04-17T07:32:58.991Z,102105.93
2018-04-17T07:35:26.800Z,102110.34
2018-04-17T07:37:54.470Z,102114.17
2018-04-17T07:40:22.189Z,102110.61
2018-04-17T07:42:49.714Z,102107.24
2018-04-17T07:45:17.552Z,102105.19
2018-04-17T07:47:56.963Z,102106.92
2018-04-17T07:50:24.534Z,102105.56
2018-04-17T07:52:52.118Z,102115.53
2018-04-17T07:55:19.674Z,102114.20
2018-04-17T07:57:47.202Z,102111.84
2018-04-17T08:00:14.745Z,102118.30
2018-04-17T08:02:42.348Z,102119.42
2018-04-17T08:05:09.882Z,102121.06
2018-04-17T08:07:37.468Z,102127.00
2018-04-17T08:10:06.059Z,102122.39
2018-04-17T08:12:33.615Z,102124.29
2018-04-17T08:15:01.485Z,102130.12
2018-04-17T08:17:29.053Z,102126.50
2018-04-17T08:19:56.669Z,102130.25
2018-04-17T08:22:24.239Z,102129.63
2018-04-17T08:24:52.255Z,102130.67
2018-04-17T08:27:19.850Z,102135.78
2018-04-17T08:29:47.447Z,102144.91
2018-04-17T08:32:15.056Z,102144.81
2018-04-17T08:34:42.598Z,102140.30
2018-04-17T08:37:10.142Z,102146.24
2018-04-17T08:39:37.766Z,102144.93
2018-04-17T08:42:05.377Z,102143.56
2018-04-17T08:44:33.235Z,102152.59
2018-04-17T08:47:00.807Z,102147.77
2018-04-17T08:49:28.661Z,102146.77
2018-04-17T08:51:56.186Z,102155.08
2018-04-17T08:54:23.774Z,102154.77
2018-04-17T08:56:51.294Z,102154.73
2018-04-17T08:59:19.137Z,102156.62
2018-04-17T09:01:46.687Z,102152.36
2018-04-17T09:04:14.217Z,102150.56
2018-04-17T09:06:41.791Z,102148.80
2018-04-17T09:09:09.305Z,102147.41
2018-04-17T09:11:37.631Z,102150.04
2018-04-17T09:14:05.151Z,102149.91
2018-04-17T09:16:32.722Z,102152.37
2018-04-17T09:19:00.623Z,102149.08
2018-04-17T09:21:28.156Z,102152.40
2018-04-17T09:23:55.791Z,102152.81
2018-04-17T09:26:23.294Z,102160.19
2018-04-17T09:28:50.845Z,102160.48
2018-04-17T09:31:18.443Z,102160.66
2018-04-17T09:33:46.014Z,102156.34
2018-04-17T09:36:13.565Z,102170.74
2018-04-17T09:38:41.117Z,102172.07
2018-04-17T09:41:08.675Z,102179.48
2018-04-17T09:43:36.274Z,102169.52
2018-04-17T09:46:04.089Z,102174.43
2018-04-17T09:48:31.971Z,102175.53
2018-04-17T09:50:59.827Z,102172.50
2018-04-17T09:53:27.356Z,102176.59
2018-04-17T09:55:54.919Z,102175.98
2018-04-17T09:58:22.448Z,102181.52
2018-04-17T10:00:55.510Z,102169.75
2018-04-17T10:03:23.263Z,102175.89
2018-04-17T10:05:50.786Z,102173.77
2018-04-17T10:08:18.369Z,102169.08
2018-04-17T10:10:45.966Z,102170.72
2018-04-17T10:13:13.575Z,102169.88
2018-04-17T10:15:41.328Z,102167.50
2018-04-17T10:18:08.891Z,102166.19
2018-04-17T10:20:36.467Z,102164.03
2018-04-17T10:23:04.052Z,102178.66
2018-04-17T10:25:31.629Z,102176.20
2018-04-17T10:27:59.193Z,102172.87
2018-04-17T10:30:26.718Z,102166.63
2018-04-17T10:32:54.260Z,102172.78
2018-04-17T10:35:21.793Z,102170.55
2018-04-17T10:37:49.348Z,102160.48
2018-04-17T10:40:16.861Z,102162.50
2018-04-17T10:42:44.388Z,102160.48
2018-04-17T10:45:11.929Z,102165.30
2018-04-17T10:47:39.488Z,102162.36
2018-04-17T10:50:07.049Z,102158.41
2018-04-17T10:52:34.554Z,102151.06
2018-04-17T10:55:02.112Z,102146.38
2018-04-17T10:57:29.643Z,102140.92
2018-04-17T10:59:57.208Z,102153.43
2018-04-17T11:02:24.838Z,102152.45
2018-04-17T11:04:52.487Z,102147.61
2018-04-17T11:07:19.989Z,102145.44
2018-04-17T11:09:47.517Z,102142.73
2018-04-17T11:12:15.075Z,102147.55
2018-04-17T11:14:42.626Z,102140.55
2018-04-17T11:17:10.227Z,102140.84
2018-04-17T11:19:37.789Z,102146.84
2018-04-17T11:22:05.554Z,102151.42
2018-04-17T11:24:33.109Z,102150.02
2018-04-17T11:27:00.945Z,102154.08
2018-04-17T11:29:28.465Z,102159.84
2018-04-17T11:31:56.011Z,102157.23
2018-04-17T11:34:23.541Z,102160.70
2018-04-17T11:36:51.087Z,102163.14
2018-04-17T11:39:18.626Z,102159.02
2018-04-17T11:41:46.135Z,102160.45
2018-04-17T11:44:13.661Z,102163.53
2018-04-17T11:46:41.555Z,102163.50
2018-04-17T11:49:09.091Z,102166.22
2018-04-17T11:51:36.642Z,102178.73
2018-04-17T11:54:04.438Z,102172.05
2018-04-17T11:56:31.968Z,102186.41
2018-04-17T11:58:59.590Z,102182.41
2018-04-17T12:01:27.157Z,102187.72
2018-04-17T12:03:54.720Z,102186.00
2018-04-17T12:06:22.335Z,102192.64
2018-04-17T12:08:51.749Z,102189.91
2018-04-17T12:11:19.348Z,102203.61
2018-04-17T12:13:46.888Z,102210.14
2018-04-17T12:16:14.524Z,102202.25
2018-04-17T12:18:42.170Z,102199.36
2018-04-17T12:21:10.286Z,102203.75
2018-04-17T12:23:37.890Z,102206.91
2018-04-17T12:26:05.430Z,102210.95
2018-04-17T12:28:33.046Z,102209.42
2018-04-17T12:31:00.613Z,102211.28
2018-04-17T12:33:28.157Z,102208.88
2018-04-17T12:35:55.716Z,102209.31
2018-04-17T12:38:23.752Z,102210.19
2018-04-17T12:40:51.363Z,102205.09
2018-04-17T12:43:18.917Z,102203.47
2018-04-17T12:45:46.519Z,102198.47
2018-04-17T12:48:14.067Z,102198.89
2018-04-17T12:50:41.644Z,102193.19
2018-04-17T12:53:09.251Z,102192.81
2018-04-17T12:55:36.829Z,102196.73
2018-04-17T12:58:04.370Z,102200.53
2018-04-17T13:00:31.946Z,102206.09
2018-04-17T13:02:59.475Z,102197.22
2018-04-17T13:05:27.026Z,102202.53
2018-04-17T13:07:54.560Z,102203.17
2018-04-17T13:10:22.068Z,102205.82
2018-04-17T13:12:49.622Z,102202.95
2018-04-17T13:15:17.135Z,102201.94
2018-04-17T13:17:44.675Z,102193.67
2018-04-17T13:20:12.205Z,102191.27
2018-04-17T13:22:39.839Z,102185.31
2018-04-17T13:25:07.424Z,102186.78
2018-04-17T13:27:35.018Z,102189.62
2018-04-17T13:30:02.672Z,102194.01
2018-04-17T13:32:30.154Z,102191.55
2018-04-17T13:34:57.735Z,102192.20
2018-04-17T13:37:25.265Z,102187.05
2018-04-17T13:39:52.864Z,102179.55
2018-04-17T13:42:20.464Z,102176.05
2018-04-17T13:44:47.982Z,102178.63
2018-04-17T13:47:15.522Z,102177.19
2018-04-17T13:49:43.063Z,102183.30
2018-04-17T13:52:10.665Z,102176.23
2018-04-17T13:54:38.273Z,102178.55
2018-04-17T13:57:05.853Z,102182.52
2018-04-17T13:59:33.377Z,102179.29
2018-04-17T14:02:00.933Z,102182.14
2018-04-17T14:04:28.582Z,102175.25
2018-04-17T14:06:56.111Z,102175.03
2018-04-17T14:09:23.952Z,102180.25
2018-04-17T14:11:51.550Z,102175.53
2018-04-17T14:14:19.133Z,102180.64
2018-04-17T14:16:46.929Z,102174.69
2018-04-17T14:19:14.519Z,102176.41
2018-04-17T14:21:42.121Z,102177.55
2018-04-17T14:24:09.935Z,102184.02
2018-04-17T14:26:37.444Z,102181.76
2018-04-17T14:29:04.972Z,102191.19
2018-04-17T14:31:32.520Z,102181.21
2018-04-17T14:34:00.285Z,102189.83
2018-04-17T14:36:28.136Z,102185.97
2018-04-17T14:38:55.691Z,102188.11
2018-04-17T14:41:23.282Z,102201.74
2018-04-17T14:43:50.804Z,102189.53
2018-04-17T14:46:18.335Z,102198.57
2018-04-17T14:48:45.896Z,102196.13
2018-04-17T14:51:13.426Z,102197.00
2018-04-17T14:53:40.949Z,102204.04
2018-04-17T14:56:08.524Z,102202.16
2018-04-17T14:58:36.115Z,102200.11
2018-04-17T15:01:03.690Z,102202.14
2018-04-17T15:03:31.303Z,102193.56
2018-04-17T15:05:58.814Z,102199.67
2018-04-17T15:08:26.396Z,102192.00
2018-04-17T15:10:54.110Z,102186.45
2018-04-17T15:13:21.668Z,102191.25
2018-04-17T15:15:49.188Z,102188.97
2018-04-17T15:18:16.743Z,102188.60
2018-04-17T15:20:45.405Z,102185.69
2018-04-17T15:23:12.984Z,102191.48
2018-04-17T15:25:40.504Z,102194.66
2018-04-17T15:28:08.012Z,102197.88
2018-04-17T15:30:35.581Z,102196.78
2018-04-17T15:33:03.154Z,102205.26
2018-04-17T15:35:30.726Z,102211.78
2018-04-17T15:37:58.249Z,102204.52
2018-04-17T15:40:25.802Z,102206.39
2018-04-17T15:42:53.403Z,102210.58
2018-04-17T15:45:20.952Z,102211.22
2018-04-17T15:47:48.489Z,102214.16
2018-04-17T15:50:16.077Z,102212.47
2018-04-17T15:52:43.719Z,102212.78
2018-04-17T15:55:11.355Z,102220.02
2018-04-17T15:57:38.899Z,102216.91
2018-04-17T16:00:06.456Z,102216.42
2018-04-17T16:02:34.123Z,102217.24
2018-04-17T16:05:01.716Z,102221.41
2018-04-17T16:07:29.250Z,102220.59
2018-04-17T16:09:57.018Z,102215.86
2018-04-17T16:12:24.570Z,102218.05
2018-04-17T16:14:52.411Z,102224.13
2018-04-17T16:17:19.993Z,102217.95
2018-04-17T16:19:47.579Z,102219.70
2018-04-17T16:22:15.264Z,102220.97
2018-04-17T16:24:43.160Z,102228.70
2018-04-17T16:27:10.951Z,102220.96
2018-04-17T16:29:38.540Z,102219.31
2018-04-17T16:32:06.378Z,102223.92
2018-04-17T16:34:33.903Z,102218.18
2018-04-17T16:37:01.900Z,102222.47
2018-04-17T16:39:29.485Z,102225.80
2018-04-17T16:41:57.097Z,102221.61
2018-04-17T16:44:24.639Z,102218.06
2018-04-17T16:46:52.198Z,102220.53
2018-04-17T16:49:19.725Z,102230.33
2018-04-17T16:51:47.269Z,102227.19
2018-04-17T16:54:15.438Z,102230.72
2018-04-17T16:56:43.109Z,102228.02
2018-04-17T16:59:11.483Z,102221.65
2018-04-17T17:01:39.043Z,102227.14
2018-04-17T17:04:06.588Z,102226.30
2018-04-17T17:06:34.131Z,102228.92
2018-04-17T17:09:01.659Z,102226.39
2018-04-17T17:11:29.275Z,102229.08
2018-04-17T17:13:56.803Z,102225.64
2018-04-17T17:16:24.339Z,102228.12
2018-04-17T17:18:52.163Z,102227.19
2018-04-17T17:21:19.730Z,102227.27
2018-04-17T17:23:47.280Z,102227.47
2018-04-17T17:26:14.878Z,102234.24
2018-04-17T17:28:42.423Z,102245.08
2018-04-17T17:31:10.184Z,102238.57
2018-04-17T17:33:37.757Z,102246.57
2018-04-17T17:36:05.571Z,102255.20
2018-04-17T17:38:33.154Z,102257.17
2018-04-17T17:41:00.684Z,102261.53
2018-04-17T17:43:28.223Z,102269.13
2018-04-17T17:45:55.754Z,102274.64
2018-04-17T17:48:23.284Z,102270.26
2018-04-17T17:50:51.612Z,102276.56
2018-04-17T17:53:19.158Z,102278.91
2018-04-17T17:55:46.753Z,102282.33
2018-04-17T17:58:14.299Z,102286.48
2018-04-17T18:00:41.863Z,102296.08
2018-04-17T18:03:09.687Z,102298.19
2018-04-17T18:05:37.329Z,102303.92
2018-04-17T18:08:05.060Z,102311.81
2018-04-17T18:10:32.882Z,102315.41
2018-04-17T18:13:00.530Z,102313.72
2018-04-17T18:15:28.446Z,102322.44
2018-04-17T18:17:56.088Z,102323.14
2018-04-17T18:20:23.692Z,102324.45
2018-04-17T18:22:51.237Z,102328.58
2018-04-17T18:25:18.770Z,102330.97
2018-04-17T18:27:46.331Z,102335.20
2018-04-17T18:30:14.184Z,102337.72
2018-04-17T18:32:41.875Z,102348.09
2018-04-17T18:35:09.417Z,102354.72
2018-04-17T18:37:42.594Z,102346.50
2018-04-17T18:42:44.352Z,102353.58
2018-04-17T18:45:13.683Z,102355.75
2018-04-17T18:47:41.209Z,102360.84
2018-04-17T18:50:08.838Z,102360.66
2018-04-17T18:52:36.655Z,102361.19
2018-04-17T18:55:04.339Z,102363.03
2018-04-17T18:57:31.895Z,102366.53
2018-04-17T19:00:00.537Z,102368.48
2018-04-17T19:02:28.465Z,102364.77
2018-04-17T19:04:55.990Z,102363.67
2018-04-17T19:07:23.735Z,102366.03
2018-04-17T19:09:51.295Z,102371.13
2018-04-17T19:12:18.829Z,102368.32
2018-04-17T19:14:46.342Z,102369.34
2018-04-17T19:17:13.899Z,102373.40
2018-04-17T19:19:41.658Z,102379.05
2018-04-17T19:22:09.567Z,102380.52
2018-04-17T19:24:37.237Z,102388.39
2018-04-17T19:27:04.767Z,102388.17
2018-04-17T19:29:32.392Z,102386.34
2018-04-17T19:32:00.014Z,102389.95
2018-04-17T19:34:27.747Z,102389.64
2018-04-17T19:36:55.523Z,102393.00
2018-04-17T19:39:23.074Z,102400.27
2018-04-17T19:41:50.958Z,102395.46
2018-04-17T19:44:18.823Z,102395.77
2018-04-17T19:46:46.430Z,102398.30
2018-04-17T19:49:13.993Z,102407.94
2018-04-17T19:51:41.521Z,102410.90
2018-04-17T19:54:09.083Z,102412.78
2018-04-17T19:56:36.604Z,102416.83
2018-04-17T19:59:04.197Z,102413.47
2018-04-17T20:01:32.656Z,102420.71
2018-04-17T20:04:00.244Z,102417.78
2018-04-17T20:06:27.793Z,102421.92
2018-04-17T20:08:55.317Z,102423.94
2018-04-17T20:11:22.882Z,102430.17
2018-04-17T20:13:50.481Z,102423.42
2018-04-17T20:16:18.342Z,102428.11
2018-04-17T20:18:48.524Z,102425.92
2018-04-17T20:21:16.200Z,102428.38
2018-04-17T20:23:43.918Z,102421.45
2018-04-17T20:26:11.516Z,102425.00
2018-04-17T20:28:39.151Z,102430.83
2018-04-17T20:31:06.733Z,102433.75
2018-04-17T20:33:34.370Z,102440.63
2018-04-17T20:36:02.265Z,102439.45
2018-04-17T20:38:30.055Z,102441.23
2018-04-17T20:40:58.148Z,102440.34
2018-04-17T20:43:27.645Z,102438.96
2018-04-17T20:45:56.631Z,102449.25
2018-04-17T20:48:24.294Z,102442.55
2018-04-17T20:50:51.830Z,102443.14
2018-04-17T20:53:19.419Z,102441.45
2018-04-17T20:55:46.986Z,102442.94
2018-04-17T20:58:14.546Z,102435.52
2018-04-17T21:00:42.174Z,102440.86
2018-04-17T21:03:09.768Z,102444.80
2018-04-17T21:05:37.328Z,102446.77
2018-04-17T21:08:04.956Z,102451.07
2018-04-17T21:10:32.498Z,102448.88
2018-04-17T21:13:00.186Z,102450.81
2018-04-17T21:15:28.120Z,102447.31
2018-04-17T21:17:55.744Z,102445.97
2018-04-17T21:20:23.542Z,102457.09
2018-04-17T21:22:51.070Z,102453.84
2018-04-17T21:25:18.676Z,102451.23
2018-04-17T21:27:46.219Z,102456.15
2018-04-17T21:30:13.746Z,102455.39
2018-04-17T21:32:41.312Z,102454.75
2018-04-17T21:35:09.198Z,102456.59
2018-04-17T21:37:36.776Z,102457.36
2018-04-17T21:40:04.391Z,102462.07
2018-04-17T21:42:31.927Z,102460.64
2018-04-17T21:44:59.478Z,102465.05
2018-04-17T21:47:27.006Z,102473.48
2018-04-17T21:49:54.614Z,102472.23
2018-04-17T21:52:22.166Z,102470.20
2018-04-17T21:54:49.694Z,102469.52
2018-04-17T21:57:17.254Z,102478.80
2018-04-17T21:59:44.833Z,102484.05
2018-04-17T22:02:12.364Z,102487.25
2018-04-17T22:04:39.939Z,102493.70
2018-04-17T22:07:07.498Z,102498.24
2018-04-17T22:09:35.115Z,102498.08
2018-04-17T22:12:02.640Z,102501.72
2018-04-17T22:14:30.157Z,102504.17
2018-04-17T22:16:57.720Z,102502.42
2018-04-17T22:19:25.285Z,102505.09
2018-04-17T22:21:52.810Z,102510.22
2018-04-17T22:24:20.366Z,102509.06
2018-04-17T22:26:47.914Z,102514.28
2018-04-17T22:29:15.489Z,102522.27
2018-04-17T22:31:43.085Z,102523.28
2018-04-17T22:34:10.609Z,102524.03
2018-04-17T22:36:38.134Z,102530.45
2018-04-17T22:39:06.625Z,102526.81
2018-04-17T22:41:34.176Z,102523.88
2018-04-17T22:44:01.726Z,102528.67
2018-04-17T22:46:29.281Z,102524.29
2018-04-17T22:48:56.814Z,102519.41
2018-04-17T22:51:24.599Z,102525.81
2018-04-17T22:53:52.165Z,102516.83
2018-04-17T22:56:19.695Z,102524.05
2018-04-17T22:58:47.221Z,102525.13
2018-04-17T23:01:14.762Z,102518.06
2018-04-17T23:03:42.302Z,102522.28
2018-04-17T23:06:09.819Z,102521.19
2018-04-17T23:08:37.367Z,102518.48
2018-04-17T23:11:04.919Z,102518.40
2018-04-17T23:13:32.480Z,102511.45
2018-04-17T23:16:00.053Z,102517.99
2018-04-17T23:18:27.593Z,102518.09
2018-04-17T23:20:55.139Z,102526.58
2018-04-17T23:23:22.672Z,102531.98
2018-04-17T23:25:50.182Z,102527.11
2018-04-17T23:28:17.766Z,102527.30
2018-04-17T23:30:46.216Z,102524.34
2018-04-17T23:33:13.749Z,102520.47
2018-04-17T23:35:41.339Z,102522.98
2018-04-17T23:38:08.913Z,102523.59
2018-04-17T23:40:36.461Z,102526.09
2018-04-17T23:43:03.987Z,102523.73
2018-04-17T23:45:31.562Z,102521.97
2018-04-17T23:47:59.100Z,102523.98
2018-04-17T23:50:26.623Z,102522.23
2018-04-17T23:52:54.545Z,102520.70
2018-04-17T23:55:22.309Z,102525.81
2018-04-17T23:57:49.847Z,102519.86
